LH2317 / D-ACNH 7700 Squawk Report (17th of September, 2021)

Aircraft CRJ9 Reg No. D-ACNH Age 12 years old
Model Regional-Jet Jet engines 2 First flight 08-10-09
Registered 05-11-09 Rollout 10-09 Delivered 06-11-09
Construction No. 15247 Line No. N/A Series 900
ADSHEX 3C4DC8 Airline name Lufthansa Regional Owner Lufthansa Cityline
Airfield based Munich~Bayern~D First tracked N/A

Flight history for D-ACNH

Route Flight No Date Playback
Poznan Lawica (POZ) - Munich Airport (MUC) LH1637 2021-10-22 13:23:00
Munich Airport (MUC) - Poznan Lawica (POZ) LH1636 2021-10-22 12:02:00
Václav Havel Airport Prague (PRG) - Munich Airport (MUC) LH1689 2021-10-22 08:26:00
Munich Airport (MUC) - Václav Havel Airport Prague (PRG) LH1688 2021-10-22 07:45:00
Sibiu (SBZ) - Munich Airport (MUC) LH1667 2021-10-22 06:19:00
???? LH2308 2021-10-22 03:01:00
EuroAirport Basel Mulhouse Freiburg (BSL) - Munich Airport (MUC) LH2401 2021-10-21 17:44:00
Munich Airport (MUC) - EuroAirport Basel Mulhouse Freiburg (BSL) LH2400 2021-10-21 16:42:00
Hamburg (HAM) - Munich Airport (MUC) LH2061 2021-10-21 14:34:00
Munich Airport (MUC) - Hamburg (HAM) LH2060 2021-10-21 12:34:00
Provence (MRS) - Munich Airport (MUC) LH2261 2021-10-21 11:15:00
???? LH2270 2021-10-21 05:57:00
???? LH2093 2021-10-20 19:04:00
???? LH2092 2021-10-20 17:24:00
Schwechat (VIE) - Munich Airport (MUC) LH2331 2021-10-20 16:23:00
Munich Airport (MUC) - Schwechat (VIE) LH2330 2021-10-20 14:47:00
Wroclaw Airport (WRO) - Munich Airport (MUC) LH1631 2021-10-20 12:22:00
Munich Airport (MUC) - Wroclaw Airport (WRO) LH1630 2021-10-20 11:24:00
Geneve Cointrin (GVA) - Munich Airport (MUC) LH2389 2021-10-20 09:47:00
Munich Airport (MUC) - Geneve Cointrin (GVA) LH2388 2021-10-19 15:32:00
Time Lat Lon Altitude Heading Speed Vertical Rate
2021-09-17 08:19:39 GMT 48.352638 11.809106 0 174 2 0
2021-09-17 08:19:25 GMT 48.352798 11.809110 0 132 4 0
2021-09-17 08:19:20 GMT 48.352879 11.809074 0 84 6 0
2021-09-17 08:19:17 GMT 48.352879 11.809020 0 84 6 0
2021-09-17 08:19:04 GMT 48.352844 11.808560 0 28 6 0
2021-09-17 08:18:58 GMT 48.352741 11.808454 0 351 8 0
2021-09-17 08:18:48 GMT 48.352402 11.808532 0 16 9 0
2021-09-17 08:18:37 GMT 48.352169 11.808032 0 84 13 0
2021-09-17 08:18:28 GMT 48.352089 11.806993 0 84 17 0
2021-09-17 08:18:18 GMT 48.351994 11.805713 0 84 20 0
2021-09-17 08:18:07 GMT 48.351871 11.804176 0 84 22 0
2021-09-17 08:17:56 GMT 48.351749 11.802461 0 84 22 0
2021-09-17 08:17:44 GMT 48.351597 11.800581 0 84 20 0
2021-09-17 08:17:36 GMT 48.351540 11.799660 0 84 18 0
2021-09-17 08:17:30 GMT 48.351471 11.798901 0 84 13 0
2021-09-17 08:17:26 GMT 48.351448 11.798594 0 81 12 0
2021-09-17 08:17:16 GMT 48.351311 11.797820 0 67 18 0
2021-09-17 08:17:05 GMT 48.350830 11.796605 0 47 22 0
2021-09-17 08:16:54 GMT 48.349903 11.795549 0 14 22 0
2021-09-17 08:16:43 GMT 48.348965 11.795531 0 354 18 0
2021-09-17 08:16:35 GMT 48.348373 11.795612 0 8 16 0
2021-09-17 08:16:24 GMT 48.347878 11.794950 0 81 18 0
2021-09-17 08:16:14 GMT 48.347740 11.793242 0 84 28 0
2021-09-17 08:16:11 GMT 48.347706 11.792767 0 84 28 0
2021-09-17 08:16:04 GMT 48.347603 11.791429 0 84 34 0
2021-09-17 08:15:54 GMT 48.347431 11.789017 0 84 35 0
2021-09-17 08:15:44 GMT 48.347233 11.786559 0 84 34 0
2021-09-17 08:15:33 GMT 48.346897 11.782096 0 84 29 0
2021-09-17 08:15:23 GMT 48.346897 11.782096 0 84 30 0
2021-09-17 08:15:20 GMT 48.346836 11.781393 0 84 29 0
2021-09-17 08:15:13 GMT 48.346733 11.780090 0 81 27 0
2021-09-17 08:15:06 GMT 48.346630 11.778752 0 84 26 0
2021-09-17 08:14:58 GMT 48.346546 11.777597 0 84 26 0
2021-09-17 08:14:49 GMT 48.346420 11.776061 0 75 15 0
2021-09-17 08:14:39 GMT 48.346325 11.774832 0 75 15 0
2021-09-17 08:14:32 GMT 48.346081 11.774308 0 11 14 0
2021-09-17 08:14:20 GMT 48.344902 11.774597 0 326 16 0
2021-09-17 08:14:09 GMT 48.344593 11.775067 0 298 16 0
2021-09-17 08:14:01 GMT 48.344254 11.776169 0 292 27 0
2021-09-17 08:13:50 GMT 48.343742 11.777958 0 292 29 0
2021-09-17 08:13:40 GMT 48.343185 11.779985 0 289 35 0
2021-09-17 08:13:30 GMT 48.343124 11.782692 1,375 264 59 0
2021-09-17 08:13:20 GMT 48.343552 11.788330 1,375 264 105 0
2021-09-17 08:13:08 GMT 48.344360 11.799172 1,375 264 140 -192
2021-09-17 08:13:00 GMT 48.344971 11.806781 1,450 264 145 -640
2021-09-17 08:12:53 GMT 48.345520 11.813824 1,525 264 146 -640
2021-09-17 08:12:48 GMT 48.345840 11.818331 1,600 264 146 -960
2021-09-17 08:12:45 GMT 48.346176 11.822301 1,725 264 147 -768
2021-09-17 08:12:39 GMT 48.346596 11.827794 1,725 264 145 -768
2021-09-17 08:12:35 GMT 48.346874 11.831769 1,750 264 145 -768
2021-09-17 08:12:27 GMT 48.347572 11.840443 1,875 264 146 -640
2021-09-17 08:12:19 GMT 48.348129 11.848177 1,975 264 147 -896
2021-09-17 08:12:15 GMT 48.348495 11.852769 2,025 264 149 -832
2021-09-17 08:12:09 GMT 48.348999 11.858755 2,100 263 150 -896
2021-09-17 08:12:06 GMT 48.349201 11.861331 2,200 264 150 -896
2021-09-17 08:12:00 GMT 48.349731 11.867840 2,250 265 150 -896
2021-09-17 08:11:57 GMT 48.350040 11.872101 2,300 264 151 -896
2021-09-17 08:11:50 GMT 48.350456 11.878461 2,375 264 152 -896
2021-09-17 08:11:46 GMT 48.350784 11.882870 2,450 264 152 -1024
2021-09-17 08:11:38 GMT 48.351379 11.891151 2,550 263 152 -832
2021-09-17 08:11:34 GMT 48.351746 11.895095 2,625 263 151 -768
2021-09-17 08:11:31 GMT 48.352135 11.899783 2,675 264 152 -704
2021-09-17 08:11:28 GMT 48.352272 11.901518 2,675 264 152 -640
2021-09-17 08:11:24 GMT 48.352661 11.906433 2,750 264 152 -896
2021-09-17 08:11:20 GMT 48.353020 11.910698 2,800 264 152 -832
2021-09-17 08:11:17 GMT 48.353119 11.912490 2,825 264 152 -768
2021-09-17 08:11:14 GMT 48.353390 11.915540 2,850 264 152 -896
2021-09-17 08:11:09 GMT 48.353851 11.921504 2,950 265 150 -768
2021-09-17 08:11:05 GMT 48.354126 11.925448 2,975 265 150 -704
2021-09-17 08:10:57 GMT 48.354950 11.937209 3,075 264 148 -704
2021-09-17 08:10:48 GMT 48.355316 11.942491 3,150 265 148 -576
2021-09-17 08:10:45 GMT 48.355534 11.945680 3,550 264 148 -576
2021-09-17 08:10:41 GMT 48.355904 11.950884 3,725 264 160 -896
2021-09-17 08:10:36 GMT 48.356323 11.956576 3,325 264 150 -1088
2021-09-17 08:10:33 GMT 48.356552 11.959041 3,350 264 151 -960
2021-09-17 08:10:29 GMT 48.356834 11.962883 3,425 264 152 -1024
2021-09-17 08:10:25 GMT 48.357101 11.966576 3,475 264 153 -832
2021-09-17 08:10:22 GMT 48.357346 11.969894 3,525 264 155 -832
2021-09-17 08:10:19 GMT 48.357697 11.974112 3,575 264 157 -960
2021-09-17 08:10:15 GMT 48.357952 11.977627 3,625 264 158 -896
2021-09-17 08:10:12 GMT 48.358200 11.981013 3,675 264 158 -896
2021-09-17 08:10:09 GMT 48.358513 11.985289 3,725 264 160 -896
2021-09-17 08:10:05 GMT 48.358791 11.989047 3,800 264 159 -896
2021-09-17 08:10:02 GMT 48.359024 11.992155 3,825 264 161 -1024
2021-09-17 08:09:59 GMT 48.359253 11.995169 3,875 264 161 -1024
2021-09-17 08:09:55 GMT 48.359627 12.000395 4,000 263 162 -1024
2021-09-17 08:09:51 GMT 48.359909 12.003720 4,000 263 162 -1088
2021-09-17 08:09:47 GMT 48.360329 12.008635 4,250 264 163 -896
2021-09-17 08:09:44 GMT 48.360626 12.011930 4,150 264 162 -1216
2021-09-17 08:09:39 GMT 48.361443 12.022296 4,450 263 163 -1152
2021-09-17 08:09:35 GMT 48.361443 12.022296 4,350 263 163 -1088
2021-09-17 08:09:32 GMT 48.361771 12.026126 4,400 263 163 -1152
2021-09-17 08:09:28 GMT 48.362141 12.030752 4,475 264 163 -1088
2021-09-17 08:09:24 GMT 48.362423 12.034438 4,550 264 163 -896
2021-09-17 08:09:21 GMT 48.362640 12.037494 4,575 264 164 -896
2021-09-17 08:09:18 GMT 48.362980 12.041449 4,625 264 164 -768
2021-09-17 08:09:14 GMT 48.363354 12.046220 4,675 264 164 -704
2021-09-17 08:09:11 GMT 48.363541 12.048966 4,700 264 163 -512
2021-09-17 08:09:08 GMT 48.363876 12.053551 4,750 265 165 -384
2021-09-17 08:09:03 GMT 48.364151 12.057425 4,775 264 166 -512
2021-09-17 08:09:00 GMT 48.364471 12.061791 4,825 264 167 -448
2021-09-17 08:08:57 GMT 48.364700 12.064960 4,800 264 166 -320
2021-09-17 08:08:54 GMT 48.365021 12.069608 4,825 265 165 -320
2021-09-17 08:08:50 GMT 48.365448 12.076215 4,825 266 160 -192
2021-09-17 08:08:47 GMT 48.365448 12.076215 4,825 266 161 0
2021-09-17 08:08:43 GMT 48.365635 12.080913 4,825 266 160 -320
2021-09-17 08:08:40 GMT 48.365845 12.084398 4,850 266 161 -320
2021-09-17 08:08:36 GMT 48.366005 12.088575 4,850 267 164 -64
2021-09-17 08:08:33 GMT 48.366192 12.092261 4,875 267 169 -256
2021-09-17 08:08:30 GMT 48.366394 12.096722 4,875 266 172 -256
2021-09-17 08:08:27 GMT 48.366566 12.099561 4,875 264 176 0
2021-09-17 08:08:22 GMT 48.366985 12.105199 4,850 264 183 384
2021-09-17 08:08:19 GMT 48.367310 12.109680 4,850 263 189 64
2021-09-17 08:08:16 GMT 48.367683 12.113945 4,850 262 192 64
2021-09-17 08:08:12 GMT 48.368088 12.118061 4,850 262 197 -192
2021-09-17 08:08:09 GMT 48.368546 12.122357 4,850 263 199 64
2021-09-17 08:08:06 GMT 48.368912 12.126512 4,850 261 204 -64
2021-09-17 08:08:02 GMT 48.369682 12.132809 4,875 256 207 -192
2021-09-17 08:07:58 GMT 48.370522 12.137580 4,875 255 208 -128
2021-09-17 08:07:54 GMT 48.371639 12.143434 4,875 253 211 448
2021-09-17 08:07:50 GMT 48.373081 12.149217 4,825 238 217 64
2021-09-17 08:07:47 GMT 48.375046 12.154259 4,825 235 217 -128
2021-09-17 08:07:42 GMT 48.377644 12.159480 4,850 229 219 -128
2021-09-17 08:07:39 GMT 48.380016 12.163600 4,850 229 218 0
2021-09-17 08:07:36 GMT 48.381454 12.165950 4,850 229 218 64
2021-09-17 08:07:32 GMT 48.384293 12.170739 4,850 192 224 0
2021-09-17 08:07:28 GMT 48.387234 12.175526 4,850 228 219 64
2021-09-17 08:07:23 GMT 48.390491 12.180513 4,850 221 220 0
2021-09-17 08:07:20 GMT 48.393288 12.184127 4,850 216 220 -64
2021-09-17 08:07:16 GMT 48.396126 12.187090 4,850 212 221 -64
2021-09-17 08:07:12 GMT 48.401962 12.191937 4,875 200 223 192
2021-09-17 08:07:09 GMT 48.401962 12.191937 4,850 202 222 192
2021-09-17 08:07:06 GMT 48.405350 12.194120 4,850 200 223 192
2021-09-17 08:07:01 GMT 48.410000 12.196342 4,875 193 224 -192
2021-09-17 08:06:58 GMT 48.413132 12.197430 4,875 192 224 0
2021-09-17 08:06:55 GMT 48.415676 12.198221 4,875 193 223 64
2021-09-17 08:06:51 GMT 48.420521 12.199811 4,850 192 225 320
2021-09-17 08:06:48 GMT 48.423172 12.200606 4,850 191 226 192
2021-09-17 08:06:45 GMT 48.426247 12.201474 4,850 191 226 0
2021-09-17 08:06:39 GMT 48.432724 12.203346 4,850 191 225 0
2021-09-17 08:06:36 GMT 48.436249 12.204261 4,875 191 225 -64
2021-09-17 08:06:31 GMT 48.440861 12.205449 4,875 187 225 -64
2021-09-17 08:06:26 GMT 48.450165 12.206022 4,875 174 226 -320
2021-09-17 08:06:19 GMT 48.453991 12.205160 4,900 169 226 128
2021-09-17 08:06:15 GMT 48.457169 12.204191 4,875 164 227 -256
2021-09-17 08:06:10 GMT 48.462570 12.201726 4,900 161 225 64
2021-09-17 08:06:07 GMT 48.465862 12.200101 4,900 161 225 64
2021-09-17 08:06:01 GMT 48.473961 12.195908 4,875 160 225 320
2021-09-17 08:05:58 GMT 48.473961 12.195908 4,875 160 225 256
2021-09-17 08:05:55 GMT 48.477314 12.194174 4,850 159 225 192
2021-09-17 08:05:51 GMT 48.480743 12.192218 4,850 158 226 64
2021-09-17 08:05:48 GMT 48.483738 12.190415 4,825 138 226 64
2021-09-17 08:05:45 GMT 48.486969 12.188486 4,850 156 226 64
2021-09-17 08:05:40 GMT 48.491791 12.185139 4,825 145 226 64
2021-09-17 08:05:37 GMT 48.495026 12.181936 4,825 140 226 0
2021-09-17 08:05:34 GMT 48.496723 12.179863 4,825 136 227 192
2021-09-17 08:05:31 GMT 48.498596 12.177077 4,825 126 228 -320
2021-09-17 08:05:28 GMT 48.501102 12.172201 4,850 102 226 0
2021-09-17 08:05:25 GMT 48.502670 12.167922 4,850 112 226 -128
2021-09-17 08:05:19 GMT 48.505245 12.153264 4,875 98 226 -128
2021-09-17 08:05:16 GMT 48.505325 12.150949 4,850 92 225 -128
2021-09-17 08:05:13 GMT 48.505325 12.150949 4,850 83 231 -64
2021-09-17 08:05:10 GMT 48.505291 12.145530 4,875 85 222 0
2021-09-17 08:05:07 GMT 48.505150 12.141483 4,875 84 223 -64
2021-09-17 08:05:04 GMT 48.504871 12.136785 4,875 83 225 -192
2021-09-17 08:05:01 GMT 48.504452 12.131508 4,900 82 228 -192
2021-09-17 08:04:58 GMT 48.503906 12.125033 4,900 83 230 0
2021-09-17 08:04:55 GMT 48.503708 12.122690 4,900 83 234 384
2021-09-17 08:04:52 GMT 48.503288 12.117559 4,900 83 234 384
2021-09-17 08:04:48 GMT 48.502853 12.111793 4,875 83 238 192
2021-09-17 08:04:44 GMT 48.502216 12.104332 4,875 82 243 -128
2021-09-17 08:04:39 GMT 48.500820 12.088069 4,875 82 248 256
2021-09-17 08:04:35 GMT 48.500820 12.088069 4,850 82 252 128
2021-09-17 08:04:28 GMT 48.499889 12.077010 4,850 83 254 -128
2021-09-17 08:04:25 GMT 48.499420 12.071510 4,875 83 254 -256
2021-09-17 08:04:22 GMT 48.498550 12.060594 4,875 83 254 -192
2021-09-17 08:04:19 GMT 48.498260 12.056555 4,900 83 253 -256
2021-09-17 08:04:16 GMT 48.498260 12.056555 4,900 83 253 -192
2021-09-17 08:04:13 GMT 48.497841 12.050990 4,900 83 257 320
2021-09-17 08:04:10 GMT 48.497498 12.046227 4,900 83 253 64
2021-09-17 08:04:07 GMT 48.496948 12.039185 4,900 83 255 0
2021-09-17 08:04:04 GMT 48.496536 12.033903 4,900 83 254 64
2021-09-17 08:03:59 GMT 48.495888 12.025982 4,900 83 254 0
2021-09-17 08:03:56 GMT 48.495392 12.019818 4,900 83 256 256
2021-09-17 08:03:52 GMT 48.494797 12.012071 4,875 83 255 128
2021-09-17 08:03:49 GMT 48.494446 12.006972 4,850 83 257 320
2021-09-17 08:03:46 GMT 48.494164 12.003359 4,850 83 257 320
2021-09-17 08:03:43 GMT 48.493793 11.998082 4,900 83 251 -1024
2021-09-17 08:03:40 GMT 48.493378 11.992915 4,850 83 255 0
2021-09-17 08:03:37 GMT 48.492115 11.978278 4,850 82 254 -256
2021-09-17 08:03:33 GMT 48.492115 11.978278 4,875 81 254 -448
2021-09-17 08:03:29 GMT 48.491695 11.974086 4,900 81 254 -768
2021-09-17 08:03:26 GMT 48.491180 11.968619 4,975 84 251 -1024
2021-09-17 08:03:23 GMT 48.490723 11.963407 5,000 82 253 -640
2021-09-17 08:03:20 GMT 48.490208 11.957245 5,025 83 253 -768
2021-09-17 08:03:16 GMT 48.489670 11.950097 5,100 83 251 -1024
2021-09-17 08:03:12 GMT 48.489231 11.944018 5,325 83 246 -1152
2021-09-17 08:03:09 GMT 48.488846 11.938970 5,200 83 249 -960
2021-09-17 08:03:06 GMT 48.488438 11.933610 5,275 83 247 -1216
2021-09-17 08:03:03 GMT 48.488022 11.927466 5,325 83 239 -960
2021-09-17 08:03:00 GMT 48.487137 11.915974 5,400 83 245 -1024
2021-09-17 08:02:56 GMT 48.487137 11.915974 5,450 83 243 -960
2021-09-17 08:02:53 GMT 48.485962 11.901081 5,625 83 237 -896
2021-09-17 08:02:48 GMT 48.485962 11.901081 5,600 83 238 -960
2021-09-17 08:02:45 GMT 48.485691 11.897615 5,700 82 237 -896
2021-09-17 08:02:40 GMT 48.485039 11.889086 5,725 82 235 -1024
2021-09-17 08:02:37 GMT 48.484497 11.882418 5,750 82 233 -896
2021-09-17 08:02:34 GMT 48.484314 11.880446 5,775 82 235 -832
2021-09-17 08:02:30 GMT 48.483582 11.872418 5,850 82 232 -960
2021-09-17 08:02:27 GMT 48.483078 11.866643 5,900 81 233 -960
2021-09-17 08:02:24 GMT 48.482059 11.856489 5,950 81 235 -768
2021-09-17 08:02:20 GMT 48.482059 11.856489 6,025 81 235 -1600
2021-09-17 08:02:17 GMT 48.481644 11.852297 6,050 81 235 -1600
2021-09-17 08:02:14 GMT 48.481293 11.848191 6,100 81 235 -1536
2021-09-17 08:02:11 GMT 48.480743 11.842346 6,175 82 236 -832
2021-09-17 08:02:07 GMT 48.480152 11.836034 6,275 83 237 -1216
2021-09-17 08:02:04 GMT 48.479782 11.831219 6,300 83 238 -832
2021-09-17 08:01:59 GMT 48.479141 11.822627 6,400 83 239 -1152
2021-09-17 08:01:55 GMT 48.478569 11.814856 6,450 82 241 -1216
2021-09-17 08:01:52 GMT 48.478195 11.810520 6,500 82 241 -1152
2021-09-17 08:01:48 GMT 48.477684 11.804520 6,575 82 243 -832
2021-09-17 08:01:44 GMT 48.477032 11.797799 6,625 82 244 -896
2021-09-17 08:01:41 GMT 48.476624 11.793260 6,750 82 247 -1088
2021-09-17 08:01:38 GMT 48.476120 11.787485 6,725 82 247 -1088
2021-09-17 08:01:34 GMT 48.475525 11.780372 6,800 83 248 -1024
2021-09-17 08:01:30 GMT 48.474747 11.769667 6,900 83 249 -640
2021-09-17 08:01:27 GMT 48.474747 11.769667 6,950 83 250 -832
2021-09-17 08:01:24 GMT 48.474239 11.762599 6,975 83 251 -832
2021-09-17 08:01:19 GMT 48.473587 11.754215 7,075 83 254 -960
2021-09-17 08:01:16 GMT 48.473236 11.749808 7,125 83 255 -960
2021-09-17 08:01:13 GMT 48.472843 11.744746 7,150 83 256 -1024
2021-09-17 08:01:09 GMT 48.472237 11.735856 7,250 84 258 -1024
2021-09-17 08:01:06 GMT 48.471821 11.729785 7,300 83 259 -1216
2021-09-17 08:01:03 GMT 48.471539 11.726171 7,375 83 260 -1344
2021-09-17 08:00:59 GMT 48.471073 11.719882 7,400 82 260 -1280
2021-09-17 08:00:56 GMT 48.470581 11.713398 7,500 83 261 -1152
2021-09-17 08:00:53 GMT 48.470238 11.708896 7,550 83 262 -960
2021-09-17 08:00:50 GMT 48.469772 11.703041 7,600 83 264 -1216
2021-09-17 08:00:47 GMT 48.469299 11.695932 7,825 84 265 -1280
2021-09-17 08:00:44 GMT 48.468887 11.690248 7,750 84 266 -1088
2021-09-17 08:00:41 GMT 48.468658 11.686354 7,825 83 267 -960
2021-09-17 08:00:38 GMT 48.468292 11.680861 7,825 84 268 -832
2021-09-17 08:00:35 GMT 48.467514 11.669734 7,875 84 265 -960
2021-09-17 08:00:32 GMT 48.467514 11.669734 7,950 84 262 -1280
2021-09-17 08:00:29 GMT 48.467213 11.664951 7,975 84 260 -832
2021-09-17 08:00:26 GMT 48.466839 11.659313 7,975 83 258 -192
2021-09-17 08:00:22 GMT 48.465813 11.645797 7,975 83 256 -64
2021-09-17 08:00:19 GMT 48.465813 11.645797 7,975 83 256 0
2021-09-17 08:00:16 GMT 48.465397 11.640810 7,975 83 255 -128
2021-09-17 08:00:13 GMT 48.465069 11.636184 7,975 83 257 64
2021-09-17 08:00:09 GMT 48.464127 11.623887 7,975 83 262 -64
2021-09-17 08:00:06 GMT 48.464127 11.623887 7,975 83 263 -320
2021-09-17 08:00:03 GMT 48.463581 11.616813 8,000 83 265 -320
2021-09-17 08:00:00 GMT 48.463303 11.613324 8,025 83 273 64
2021-09-17 07:59:57 GMT 48.462788 11.606911 8,025 83 268 -256
2021-09-17 07:59:54 GMT 48.461811 11.594190 8,025 83 270 -64
2021-09-17 07:59:50 GMT 48.461811 11.594190 8,025 83 272 0
2021-09-17 07:59:46 GMT 48.461159 11.585517 8,025 83 277 256
2021-09-17 07:59:42 GMT 48.460693 11.579167 8,025 83 282 -128
2021-09-17 07:59:39 GMT 48.460182 11.572362 8,025 84 285 -192
2021-09-17 07:59:36 GMT 48.459717 11.565279 8,025 85 287 128
2021-09-17 07:59:32 GMT 48.459435 11.559352 8,025 87 288 256
2021-09-17 07:59:28 GMT 48.459206 11.550968 8,050 91 291 -768
2021-09-17 07:59:25 GMT 48.459320 11.542687 8,075 93 291 -1088
2021-09-17 07:59:22 GMT 48.459503 11.539025 8,125 95 291 -1152
2021-09-17 07:59:19 GMT 48.460007 11.531771 8,200 100 292 -960
2021-09-17 07:59:16 GMT 48.460648 11.525785 8,250 102 292 -1024
2021-09-17 07:59:13 GMT 48.461380 11.520151 8,325 102 292 -1216
2021-09-17 07:59:09 GMT 48.462341 11.513390 8,350 101 292 -1408
2021-09-17 07:59:06 GMT 48.463165 11.507474 8,475 101 291 -1536
2021-09-17 07:59:03 GMT 48.464355 11.499094 8,525 101 290 -1280
2021-09-17 07:59:00 GMT 48.464951 11.494798 8,575 101 290 -896
2021-09-17 07:58:57 GMT 48.465630 11.489820 8,625 102 290 -1024
2021-09-17 07:58:54 GMT 48.466560 11.483098 8,675 102 288 -1088
2021-09-17 07:58:51 GMT 48.467468 11.477051 8,700 102 288 -768
2021-09-17 07:58:47 GMT 48.468655 11.469437 8,800 102 285 -1088
2021-09-17 07:58:44 GMT 48.469540 11.463655 8,850 103 283 -1216
2021-09-17 07:58:41 GMT 48.470398 11.458036 8,875 102 281 -1152
2021-09-17 07:58:38 GMT 48.471680 11.449655 8,950 102 278 -896
2021-09-17 07:58:35 GMT 48.473419 11.437965 8,975 102 268 -576
2021-09-17 07:58:32 GMT 48.473419 11.437965 9,025 102 276 -832
2021-09-17 07:58:29 GMT 48.473820 11.435177 9,050 102 275 -960
2021-09-17 07:58:25 GMT 48.474747 11.428598 9,100 102 271 -1280
2021-09-17 07:58:22 GMT 48.475731 11.422167 9,200 101 271 -1280
2021-09-17 07:58:19 GMT 48.476486 11.416837 9,200 102 268 -448
2021-09-17 07:58:15 GMT 48.478523 11.401929 9,275 101 271 -1280
2021-09-17 07:58:12 GMT 48.478523 11.401929 9,350 100 272 -1152
2021-09-17 07:58:09 GMT 48.479004 11.398034 9,375 101 274 -1088
2021-09-17 07:58:05 GMT 48.480103 11.389724 9,500 101 283 -1280
2021-09-17 07:58:02 GMT 48.480972 11.383667 9,600 102 282 -1152
2021-09-17 07:57:59 GMT 48.481689 11.378945 9,575 102 282 -1152
2021-09-17 07:57:54 GMT 48.483032 11.369512 9,850 102 293 -1984
2021-09-17 07:57:51 GMT 48.483784 11.363839 9,775 102 287 -1984
2021-09-17 07:57:48 GMT 48.484497 11.358948 9,850 102 289 -1024
2021-09-17 07:57:45 GMT 48.485737 11.350467 9,975 103 292 -1984
2021-09-17 07:57:42 GMT 48.486465 11.345919 10,050 102 293 -1856
2021-09-17 07:57:39 GMT 48.487553 11.338541 10,125 101 294 -1984
2021-09-17 07:57:36 GMT 48.488159 11.334566 10,250 101 294 -2176
2021-09-17 07:57:33 GMT 48.488983 11.328313 10,375 102 296 -2112
2021-09-17 07:57:30 GMT 48.490208 11.319676 10,450 103 297 -2048
2021-09-17 07:57:27 GMT 48.490677 11.316622 10,500 103 297 -2304
2021-09-17 07:57:24 GMT 48.491867 11.308946 10,700 102 298 -2304
2021-09-17 07:57:21 GMT 48.492908 11.301896 10,775 102 300 -1984
2021-09-17 07:57:17 GMT 48.493698 11.296762 10,850 102 300 -2048
2021-09-17 07:57:13 GMT 48.495190 11.287151 11,050 103 305 -1792
2021-09-17 07:57:10 GMT 48.495979 11.282236 11,050 103 305 -1792
2021-09-17 07:57:07 GMT 48.496994 11.275846 11,150 103 306 -2048
2021-09-17 07:57:03 GMT 48.498726 11.265251 11,425 105 308 -2432
2021-09-17 07:57:00 GMT 48.499470 11.261131 11,525 105 310 -2624
2021-09-17 07:56:57 GMT 48.500519 11.255071 11,925 105 310 -2624
2021-09-17 07:56:53 GMT 48.502544 11.244073 11,800 106 310 -2880
2021-09-17 07:56:50 GMT 48.503384 11.239953 12,375 130 314 -2112
2021-09-17 07:56:47 GMT 48.504639 11.234243 12,075 113 311 -2752
2021-09-17 07:56:44 GMT 48.506454 11.227377 12,125 114 310 -2688
2021-09-17 07:56:41 GMT 48.508026 11.222534 12,650 127 313 -2368
2021-09-17 07:56:38 GMT 48.512367 11.211042 12,500 122 313 -2560
2021-09-17 07:56:35 GMT 48.512367 11.211042 12,500 124 313 -2432
2021-09-17 07:56:33 GMT 48.514183 11.207067 12,650 129 313 -2048
2021-09-17 07:56:30 GMT 48.519814 11.196514 12,850 138 319 -1600
2021-09-17 07:56:27 GMT 48.522903 11.191547 12,900 133 316 -1728
2021-09-17 07:56:23 GMT 48.522903 11.191547 12,925 137 319 -1664
2021-09-17 07:56:20 GMT 48.527847 11.184645 13,300 145 323 -2112
2021-09-17 07:56:17 GMT 48.530869 11.180913 13,125 145 324 -2176
2021-09-17 07:56:14 GMT 48.533360 11.178083 13,225 145 323 -2112
2021-09-17 07:56:11 GMT 48.538017 11.173168 13,275 145 323 -2112
2021-09-17 07:56:08 GMT 48.540848 11.170279 13,450 146 325 -2048
2021-09-17 07:56:05 GMT 48.545696 11.165290 13,500 145 327 -1984
2021-09-17 07:56:01 GMT 48.550446 11.160447 13,650 145 330 -2048
2021-09-17 07:55:58 GMT 48.558033 11.152641 13,725 145 331 -2176
2021-09-17 07:55:55 GMT 48.558033 11.152641 13,900 145 332 -2240
2021-09-17 07:55:52 GMT 48.561062 11.149533 15,225 133 352 -2432
2021-09-17 07:55:49 GMT 48.565620 11.144690 14,075 145 336 -1984
2021-09-17 07:55:46 GMT 48.569550 11.140489 14,150 145 337 -2176
2021-09-17 07:55:44 GMT 48.571609 11.138376 14,225 144 339 -2176
2021-09-17 07:55:40 GMT 48.576096 11.133632 14,350 144 339 -2048
2021-09-17 07:55:37 GMT 48.580765 11.128446 14,450 143 340 -2432
2021-09-17 07:55:34 GMT 48.584473 11.124080 14,625 138 342 -2176
2021-09-17 07:55:31 GMT 48.587967 11.119610 14,750 135 344 -2368
2021-09-17 07:55:28 GMT 48.595642 11.108375 14,875 134 345 -2432
2021-09-17 07:55:24 GMT 48.595642 11.108375 15,000 133 347 -1984
2021-09-17 07:55:21 GMT 48.599625 11.102037 15,075 133 350 -2112
2021-09-17 07:55:18 GMT 48.605667 11.092529 15,325 133 352 -2496
2021-09-17 07:55:15 GMT 48.605667 11.092529 15,250 133 351 -2496
2021-09-17 07:55:13 GMT 48.609383 11.086651 15,500 133 353 -2304
2021-09-17 07:55:10 GMT 48.611149 11.083832 15,500 133 359 -2560
2021-09-17 07:55:07 GMT 48.615665 11.076676 15,575 133 357 -2112
2021-09-17 07:55:04 GMT 48.618412 11.072340 15,700 133 358 -2304
2021-09-17 07:55:01 GMT 48.621857 11.066991 16,325 133 360 -2368
2021-09-17 07:54:58 GMT 48.625954 11.060414 15,925 133 360 -2304
2021-09-17 07:54:55 GMT 48.628933 11.055643 16,150 132 363 -2112
2021-09-17 07:54:52 GMT 48.632263 11.050274 16,150 132 365 -2304
2021-09-17 07:54:49 GMT 48.635822 11.044512 16,225 132 365 -2880
2021-09-17 07:54:46 GMT 48.639175 11.039077 16,450 133 368 -2176
2021-09-17 07:54:43 GMT 48.641693 11.034921 16,450 133 368 -2176
2021-09-17 07:54:40 GMT 48.647461 11.025720 16,600 133 372 -1856
2021-09-17 07:54:37 GMT 48.649834 11.021961 16,725 134 375 -2048
2021-09-17 07:54:34 GMT 48.653652 11.015962 17,175 133 378 -2112
2021-09-17 07:54:29 GMT 48.659470 11.006855 17,000 133 378 -2112
2021-09-17 07:54:26 GMT 48.662979 11.001329 17,225 133 380 -2240
2021-09-17 07:54:23 GMT 48.667709 10.993845 17,175 133 380 -2240
2021-09-17 07:54:20 GMT 48.669754 10.990554 17,250 132 380 -2432
2021-09-17 07:54:17 GMT 48.673950 10.983726 17,400 132 381 -2496
2021-09-17 07:54:14 GMT 48.677021 10.978667 17,550 132 382 -2368
2021-09-17 07:54:11 GMT 48.680885 10.972378 17,750 132 382 -2304
2021-09-17 07:54:07 GMT 48.685493 10.964934 17,800 133 383 -2368
2021-09-17 07:54:04 GMT 48.689358 10.958718 17,925 133 384 -2560
2021-09-17 07:54:01 GMT 48.692871 10.953017 18,025 133 384 -2432
2021-09-17 07:53:58 GMT 48.696712 10.947009 18,175 133 386 -2304
2021-09-17 07:53:55 GMT 48.700390 10.941226 19,950 134 385 -2368
2021-09-17 07:53:52 GMT 48.704117 10.935444 18,400 133 387 -2304
2021-09-17 07:53:49 GMT 48.709095 10.927638 18,475 134 388 -2304
2021-09-17 07:53:45 GMT 48.712967 10.921607 18,775 133 388 -2304
2021-09-17 07:53:41 GMT 48.718826 10.912387 18,775 133 390 -2304
2021-09-17 07:53:38 GMT 48.726089 10.900967 18,900 134 391 -2304
2021-09-17 07:53:35 GMT 48.726089 10.900967 19,050 133 392 -2304
2021-09-17 07:53:32 GMT 48.730270 10.894494 19,275 133 393 -2304
2021-09-17 07:53:29 GMT 48.733017 10.890127 19,200 133 393 -2304
2021-09-17 07:53:25 GMT 48.738327 10.881817 19,350 133 394 -2240
2021-09-17 07:53:22 GMT 48.740891 10.877873 19,425 133 396 -2240
2021-09-17 07:53:18 GMT 48.747482 10.867450 19,675 133 398 -2240
2021-09-17 07:53:15 GMT 48.751556 10.861042 19,725 133 398 -2304
2021-09-17 07:53:13 GMT 48.753616 10.857873 19,775 133 399 -2304
2021-09-17 07:53:10 GMT 48.758469 10.850196 19,900 133 401 -2304
2021-09-17 07:53:06 GMT 48.762676 10.843506 20,050 133 401 -2240
2021-09-17 07:53:03 GMT 48.767334 10.836278 20,150 133 403 -2304
2021-09-17 07:53:00 GMT 48.773804 10.826087 20,300 133 403 -2304
2021-09-17 07:52:57 GMT 48.773804 10.826087 20,525 133 405 -2240
2021-09-17 07:52:54 GMT 48.777008 10.820970 20,675 133 406 -2240
2021-09-17 07:52:50 GMT 48.783394 10.810981 20,625 133 406 -2240
2021-09-17 07:52:46 GMT 48.788864 10.802378 20,775 133 408 -2240
2021-09-17 07:52:43 GMT 48.793442 10.795124 20,900 133 409 -2240
2021-09-17 07:52:40 GMT 48.796196 10.790815 21,050 133 410 -2240
2021-09-17 07:52:37 GMT 48.799530 10.785616 21,125 133 411 -2304
2021-09-17 07:52:34 GMT 48.803696 10.778996 21,250 133 412 -2240
2021-09-17 07:52:31 GMT 48.813885 10.762915 21,475 133 414 -2240
2021-09-17 07:52:27 GMT 48.813885 10.762915 21,475 133 414 -2240
2021-09-17 07:52:23 GMT 48.817703 10.756812 23,050 133 415 -2240
2021-09-17 07:52:20 GMT 48.823288 10.748009 21,825 133 418 -2240
2021-09-17 07:52:17 GMT 48.826641 10.742677 21,850 133 418 -2240
2021-09-17 07:52:14 GMT 48.830597 10.736317 21,925 133 419 -2240
2021-09-17 07:52:12 GMT 48.833130 10.732304 22,050 133 420 -2304
2021-09-17 07:52:09 GMT 48.837299 10.725692 22,125 133 421 -2240
2021-09-17 07:52:06 GMT 48.840637 10.720403 22,200 133 422 -2240
2021-09-17 07:52:03 GMT 48.844666 10.713924 22,375 133 423 -2240
2021-09-17 07:52:00 GMT 48.849792 10.705825 22,450 133 424 -2240
2021-09-17 07:51:57 GMT 48.853043 10.700684 22,575 133 426 -2240
2021-09-17 07:51:54 GMT 48.857552 10.693528 22,750 133 427 -2240
2021-09-17 07:51:50 GMT 48.862438 10.685722 22,900 133 429 -2240
2021-09-17 07:51:47 GMT 48.867233 10.678148 22,950 133 430 -2304
2021-09-17 07:51:44 GMT 48.872177 10.670260 23,875 133 442 -2304
2021-09-17 07:51:41 GMT 48.876297 10.663710 23,175 133 433 -2304
2021-09-17 07:51:37 GMT 48.880314 10.657317 23,325 133 435 -2304
2021-09-17 07:51:34 GMT 48.885296 10.649366 23,425 133 435 -2304
2021-09-17 07:51:32 GMT 48.887375 10.646034 23,475 133 437 -2304
2021-09-17 07:51:29 GMT 48.891113 10.640042 23,575 133 437 -2368
2021-09-17 07:51:26 GMT 48.896702 10.631152 23,725 133 439 -2304
2021-09-17 07:51:23 GMT 48.899368 10.626878 23,825 133 441 -2304
2021-09-17 07:51:21 GMT 48.903732 10.619949 23,950 133 443 -2304
2021-09-17 07:51:18 GMT 48.907242 10.614342 24,025 133 444 -2240
2021-09-17 07:51:15 GMT 48.911366 10.607806 24,100 133 445 -2240
2021-09-17 07:51:12 GMT 48.916351 10.599835 24,225 133 447 -2432
2021-09-17 07:51:09 GMT 48.921047 10.592338 24,375 134 447 -2496
2021-09-17 07:51:06 GMT 48.923172 10.588919 24,750 133 449 -2816
2021-09-17 07:51:03 GMT 48.927612 10.581786 24,650 133 450 -2816
2021-09-17 07:51:00 GMT 48.931732 10.575115 24,725 132 451 -2944
2021-09-17 07:50:57 GMT 48.937527 10.565595 24,925 132 451 -3008
2021-09-17 07:50:53 GMT 48.942123 10.557791 25,725 124 451 -3008
2021-09-17 07:50:50 GMT 48.947205 10.548495 25,250 128 452 -3008
2021-09-17 07:50:46 GMT 48.952705 10.537768 25,525 125 451 -3008
2021-09-17 07:50:43 GMT 48.955032 10.532931 25,650 124 451 -3008
2021-09-17 07:50:41 GMT 48.958145 10.526170 31,000 122 453 -3008
2021-09-17 07:50:38 GMT 48.962082 10.517226 31,000 121 469 0
2021-09-17 07:50:35 GMT 48.965240 10.509761 26,975 122 453 -2944
2021-09-17 07:50:32 GMT 48.967602 10.504158 26,050 122 452 -2944
2021-09-17 07:50:29 GMT 48.971054 10.495817 26,300 122 453 -2944
2021-09-17 07:50:26 GMT 48.974442 10.487788 26,975 122 454 -2944
2021-09-17 07:50:23 GMT 48.977783 10.479689 26,575 122 454 -2944
2021-09-17 07:50:21 GMT 48.980824 10.472428 26,675 122 454 -2944
2021-09-17 07:50:18 GMT 48.987259 10.457083 28,675 122 461 -3008
2021-09-17 07:50:15 GMT 48.987259 10.457083 27,025 122 455 -2944
2021-09-17 07:50:12 GMT 48.990189 10.450040 27,025 122 455 -2944
2021-09-17 07:50:09 GMT 48.994553 10.439541 27,425 122 460 -3008
2021-09-17 07:50:06 GMT 48.996368 10.435205 27,400 122 457 -2944
2021-09-17 07:50:03 GMT 49.000885 10.424363 27,500 122 456 -2944
2021-09-17 07:50:00 GMT 49.007450 10.408606 27,900 122 458 -2944
2021-09-17 07:49:57 GMT 49.007450 10.408606 28,400 122 459 -3008
2021-09-17 07:49:54 GMT 49.014771 10.390954 28,000 122 458 -3008
2021-09-17 07:49:51 GMT 49.014771 10.390954 28,150 122 458 -3008
2021-09-17 07:49:48 GMT 49.017876 10.383598 28,350 122 459 -3008
2021-09-17 07:49:44 GMT 49.024673 10.367191 28,550 122 461 -3008
2021-09-17 07:49:41 GMT 49.024673 10.367191 28,650 122 461 -3008
2021-09-17 07:49:38 GMT 49.029003 10.356783 29,400 122 463 -3072
2021-09-17 07:49:35 GMT 49.035461 10.341163 28,900 122 461 -3072
2021-09-17 07:49:32 GMT 49.035461 10.341163 29,000 122 461 -3072
2021-09-17 07:49:30 GMT 49.038757 10.333205 29,175 122 462 -3072
2021-09-17 07:49:27 GMT 49.041641 10.326374 29,400 122 462 -3072
2021-09-17 07:49:24 GMT 49.049835 10.306584 29,500 122 462 -3072
2021-09-17 07:49:21 GMT 49.049835 10.306584 29,625 122 462 -3072
2021-09-17 07:49:18 GMT 49.051067 10.303513 29,925 122 462 -3072
2021-09-17 07:49:15 GMT 49.055164 10.293611 30,300 122 464 -2880
2021-09-17 07:49:12 GMT 49.057800 10.287288 30,300 122 464 -2880
2021-09-17 07:49:10 GMT 49.060089 10.281724 30,175 122 464 -2752
2021-09-17 07:49:07 GMT 49.067871 10.262991 30,325 122 465 -2752
2021-09-17 07:49:04 GMT 49.067871 10.262991 30,400 122 466 -2624
2021-09-17 07:49:01 GMT 49.070618 10.256301 30,500 122 466 -2624
2021-09-17 07:48:59 GMT 49.073593 10.249117 30,750 122 467 -2496
2021-09-17 07:48:56 GMT 49.077026 10.240807 30,850 122 468 -2304
2021-09-17 07:48:53 GMT 49.081047 10.231018 30,975 122 470 -1856
2021-09-17 07:48:50 GMT 49.083378 10.225453 30,975 122 470 -1856
2021-09-17 07:48:47 GMT 49.087101 10.216490 31,000 122 470 -576
2021-09-17 07:48:44 GMT 49.090439 10.208412 31,000 122 470 -64
2021-09-17 07:48:41 GMT 49.095432 10.196397 31,000 122 470 0
2021-09-17 07:48:38 GMT 49.097992 10.190181 31,000 122 470 0
2021-09-17 07:48:35 GMT 49.101105 10.182636 31,000 122 470 0
2021-09-17 07:48:32 GMT 49.104698 10.173990 31,000 122 470 0
2021-09-17 07:48:30 GMT 49.107101 10.168058 31,000 122 470 0
2021-09-17 07:48:26 GMT 49.111267 10.157987 31,000 122 470 0
2021-09-17 07:48:23 GMT 49.116009 10.146525 31,000 122 470 0
2021-09-17 07:48:20 GMT 49.118179 10.141156 31,000 122 470 0
2021-09-17 07:48:17 GMT 49.121548 10.133081 31,000 122 470 0
2021-09-17 07:48:14 GMT 49.125229 10.124118 31,000 122 470 0
2021-09-17 07:48:11 GMT 49.128571 10.115943 31,000 122 470 0
2021-09-17 07:48:08 GMT 49.132050 10.107563 31,000 121 470 0
2021-09-17 07:48:05 GMT 49.135609 10.098821 31,000 121 470 0
2021-09-17 07:48:02 GMT 49.139877 10.088478 31,000 122 470 -64
2021-09-17 07:47:59 GMT 49.142078 10.083136 31,000 122 470 0
2021-09-17 07:47:56 GMT 49.146561 10.072209 31,000 122 470 0
2021-09-17 07:47:53 GMT 49.149124 10.066012 31,000 122 470 0
2021-09-17 07:47:50 GMT 49.153244 10.055941 31,000 121 470 64
2021-09-17 07:47:47 GMT 49.156265 10.048617 31,000 121 470 64
2021-09-17 07:47:44 GMT 49.160614 10.037983 31,000 121 470 64
2021-09-17 07:47:41 GMT 49.164093 10.029532 31,000 121 470 64
2021-09-17 07:47:38 GMT 49.166985 10.022495 31,000 121 470 0
2021-09-17 07:47:35 GMT 49.169731 10.015773 31,000 122 470 0
2021-09-17 07:47:32 GMT 49.174210 10.004812 31,000 121 470 0
2021-09-17 07:47:27 GMT 49.179878 9.991054 31,000 121 470 0
2021-09-17 07:47:24 GMT 49.183090 9.983175 31,000 121 470 0
2021-09-17 07:47:21 GMT 49.185745 9.976713 31,000 121 470 0
2021-09-17 07:47:19 GMT 49.188950 9.968825 31,000 121 470 0
2021-09-17 07:47:16 GMT 49.191841 9.961853 31,000 121 470 0
2021-09-17 07:47:13 GMT 49.195633 9.952557 31,000 121 470 0
2021-09-17 07:47:10 GMT 49.199066 9.944106 31,000 121 470 0
2021-09-17 07:47:07 GMT 49.203110 9.934315 31,000 121 470 0
2021-09-17 07:47:04 GMT 49.205521 9.928401 31,000 121 470 0
2021-09-17 07:47:01 GMT 49.209534 9.918558 31,000 121 470 0
2021-09-17 07:46:58 GMT 49.213074 9.909809 31,000 121 470 0
2021-09-17 07:46:55 GMT 49.216736 9.900865 31,000 121 470 0
2021-09-17 07:46:52 GMT 49.219986 9.892977 31,000 121 470 0
2021-09-17 07:46:49 GMT 49.222614 9.886467 31,000 121 470 0
2021-09-17 07:46:46 GMT 49.226395 9.877202 31,000 121 469 0
2021-09-17 07:46:43 GMT 49.230202 9.867963 31,000 121 469 0
2021-09-17 07:46:40 GMT 49.233833 9.858928 31,000 121 469 0
2021-09-17 07:46:37 GMT 49.237152 9.850793 31,000 121 469 0
2021-09-17 07:46:34 GMT 49.240631 9.842341 31,000 121 469 0
2021-09-17 07:46:31 GMT 49.244064 9.833890 31,000 121 469 0
2021-09-17 07:46:28 GMT 49.247147 9.826331 31,000 121 469 0
2021-09-17 07:46:25 GMT 49.254272 9.808819 31,000 121 469 0
2021-09-17 07:46:22 GMT 49.254272 9.808819 31,000 121 469 0
2021-09-17 07:46:19 GMT 49.258255 9.798960 31,000 121 469 0
2021-09-17 07:46:16 GMT 49.261112 9.791926 31,000 121 469 0
2021-09-17 07:46:13 GMT 49.264023 9.784875 31,000 121 469 0
2021-09-17 07:46:10 GMT 49.268932 9.772773 31,000 121 469 0
2021-09-17 07:46:07 GMT 49.271118 9.767409 31,000 121 469 0
2021-09-17 07:46:03 GMT 49.276840 9.753324 31,000 121 470 0
2021-09-17 07:46:00 GMT 49.283020 9.738112 31,000 121 470 0
2021-09-17 07:45:57 GMT 49.283020 9.738112 31,000 121 470 0
2021-09-17 07:45:54 GMT 49.286224 9.730225 31,000 121 469 0
2021-09-17 07:45:50 GMT 49.292862 9.713816 31,000 121 470 0
2021-09-17 07:45:48 GMT 49.296398 9.705120 31,000 121 470 0
2021-09-17 07:45:45 GMT 49.296398 9.705120 31,000 121 470 0
2021-09-17 07:45:42 GMT 49.301331 9.692970 31,000 121 469 0
2021-09-17 07:45:39 GMT 49.304260 9.685645 31,000 121 470 0
2021-09-17 07:45:36 GMT 49.307007 9.678885 31,000 121 470 0
2021-09-17 07:45:33 GMT 49.310551 9.670137 31,000 121 470 0
2021-09-17 07:45:30 GMT 49.313416 9.663039 31,000 121 470 0
2021-09-17 07:45:27 GMT 49.317162 9.653730 31,000 121 470 0
2021-09-17 07:45:24 GMT 49.321537 9.643033 31,000 121 470 0
2021-09-17 07:45:21 GMT 49.324127 9.636489 31,000 121 470 0
2021-09-17 07:45:18 GMT 49.327332 9.628601 31,000 121 469 0
2021-09-17 07:45:15 GMT 49.331547 9.618169 31,000 121 470 0
2021-09-17 07:45:12 GMT 49.333828 9.612459 31,000 121 470 0
2021-09-17 07:45:09 GMT 49.338623 9.600605 31,000 121 470 0
2021-09-17 07:45:05 GMT 49.345512 9.583692 31,000 121 470 0
2021-09-17 07:45:02 GMT 49.345512 9.583692 31,000 121 470 0
2021-09-17 07:44:59 GMT 49.348911 9.575163 31,000 121 470 0
2021-09-17 07:44:56 GMT 49.351776 9.568106 31,000 121 470 -64
2021-09-17 07:44:53 GMT 49.356220 9.557094 31,000 121 470 0
2021-09-17 07:44:50 GMT 49.359615 9.548565 31,025 121 470 0
2021-09-17 07:44:46 GMT 49.364777 9.535851 31,025 121 470 0
2021-09-17 07:44:43 GMT 49.367706 9.528527 31,000 121 470 0
2021-09-17 07:44:39 GMT 49.371254 9.519726 31,000 121 470 0
2021-09-17 07:44:37 GMT 49.374115 9.512681 31,000 121 470 0
2021-09-17 07:44:34 GMT 49.377632 9.503897 31,000 121 470 -64
2021-09-17 07:44:31 GMT 49.380379 9.497102 31,000 121 469 0
2021-09-17 07:44:28 GMT 49.384369 9.487187 31,000 121 469 0
2021-09-17 07:44:25 GMT 49.387875 9.478455 31,000 121 469 0
2021-09-17 07:44:22 GMT 49.392563 9.466834 31,000 121 469 0
2021-09-17 07:44:19 GMT 49.394718 9.461469 31,000 121 469 -64
2021-09-17 07:44:16 GMT 49.399281 9.450121 31,000 121 469 0
2021-09-17 07:44:13 GMT 49.402542 9.441904 31,000 121 469 0
2021-09-17 07:44:10 GMT 49.405060 9.435707 31,000 121 469 0
2021-09-17 07:44:08 GMT 49.407658 9.429161 31,000 121 469 0
2021-09-17 07:44:05 GMT 49.410637 9.421861 31,000 121 469 0
2021-09-17 07:44:02 GMT 49.415039 9.410776 31,000 121 469 0
2021-09-17 07:43:59 GMT 49.417435 9.404803 31,000 121 469 0
2021-09-17 07:43:56 GMT 49.424149 9.388170 31,000 121 469 0
2021-09-17 07:43:53 GMT 49.424149 9.388170 31,000 121 469 64
2021-09-17 07:43:50 GMT 49.427910 9.378761 31,000 121 469 0
2021-09-17 07:43:47 GMT 49.431885 9.368880 31,000 121 469 0
2021-09-17 07:43:44 GMT 49.434708 9.361762 31,000 121 469 0
2021-09-17 07:43:41 GMT 49.437973 9.353557 31,000 121 469 0
2021-09-17 07:43:38 GMT 49.441818 9.343944 31,000 121 469 0
2021-09-17 07:43:35 GMT 49.445480 9.334910 31,000 121 469 0
2021-09-17 07:43:32 GMT 49.447723 9.329200 31,000 121 469 0
2021-09-17 07:43:29 GMT 49.451797 9.319008 31,000 121 469 0
2021-09-17 07:43:26 GMT 49.455330 9.310245 31,000 121 469 0
2021-09-17 07:43:23 GMT 49.458260 9.302822 31,000 121 469 0
2021-09-17 07:43:20 GMT 49.464981 9.286122 31,000 121 469 0
2021-09-17 07:43:17 GMT 49.464981 9.286122 31,000 121 469 0
2021-09-17 07:43:14 GMT 49.469284 9.275352 31,000 121 469 0
2021-09-17 07:43:10 GMT 49.473251 9.265409 31,000 121 469 0
2021-09-17 07:43:08 GMT 49.476185 9.258060 31,000 121 469 0
2021-09-17 07:43:05 GMT 49.478188 9.252938 31,000 121 469 0
2021-09-17 07:43:02 GMT 49.482281 9.242694 31,000 121 469 0
2021-09-17 07:42:59 GMT 49.484982 9.235939 31,000 121 469 0
2021-09-17 07:42:57 GMT 49.487495 9.229703 31,000 121 469 -64
2021-09-17 07:42:54 GMT 49.492355 9.217457 31,000 121 469 0
2021-09-17 07:42:51 GMT 49.497345 9.204953 31,000 121 469 -64
2021-09-17 07:42:48 GMT 49.501419 9.194762 31,000 121 469 0
2021-09-17 07:42:45 GMT 49.501419 9.194762 31,000 121 469 0
2021-09-17 07:42:42 GMT 49.505836 9.183680 31,000 121 469 0
2021-09-17 07:42:39 GMT 49.507652 9.179151 31,000 121 469 0
2021-09-17 07:42:37 GMT 49.510353 9.172396 31,000 121 469 0
2021-09-17 07:42:34 GMT 49.514637 9.161558 31,000 121 469 0
2021-09-17 07:42:31 GMT 49.517803 9.153616 31,000 121 469 0
2021-09-17 07:42:28 GMT 49.520084 9.147974 31,000 121 469 0
2021-09-17 07:42:25 GMT 49.523945 9.138324 31,000 121 469 0
2021-09-17 07:42:22 GMT 49.526878 9.130901 31,000 121 469 0
2021-09-17 07:42:19 GMT 49.530975 9.120731 31,000 121 469 0
2021-09-17 07:42:16 GMT 49.534142 9.112788 31,000 121 469 0
2021-09-17 07:42:13 GMT 49.537308 9.104845 31,000 121 469 0
2021-09-17 07:42:10 GMT 49.541245 9.094873 31,000 121 469 0
2021-09-17 07:42:07 GMT 49.544678 9.086344 31,000 121 469 0
2021-09-17 07:42:04 GMT 49.547966 9.078122 31,000 121 469 0
2021-09-17 07:42:01 GMT 49.550354 9.072177 31,000 121 470 0
2021-09-17 07:41:58 GMT 49.555115 9.060251 31,000 121 469 0
2021-09-17 07:41:54 GMT 49.559875 9.048325 31,000 121 469 0
2021-09-17 07:41:51 GMT 49.563377 9.039447 31,000 121 469 0
2021-09-17 07:41:48 GMT 49.567005 9.030391 31,000 121 469 0
2021-09-17 07:41:45 GMT 49.569988 9.022967 31,000 121 469 0
2021-09-17 07:41:42 GMT 49.572685 9.016138 31,000 121 469 0
2021-09-17 07:41:39 GMT 49.579296 8.999659 31,000 121 469 0
2021-09-17 07:41:36 GMT 49.579296 8.999659 31,000 121 469 0
2021-09-17 07:41:34 GMT 49.581532 8.994017 31,000 121 469 -64
2021-09-17 07:41:31 GMT 49.585052 8.985154 31,000 121 470 0
2021-09-17 07:41:28 GMT 49.588608 8.976350 31,000 121 469 0
2021-09-17 07:41:25 GMT 49.592148 8.967518 31,000 121 470 0
2021-09-17 07:41:22 GMT 49.595078 8.960146 31,000 121 469 0
2021-09-17 07:41:19 GMT 49.602482 8.941683 31,000 121 470 0
2021-09-17 07:41:16 GMT 49.602482 8.941683 31,000 121 469 0
2021-09-17 07:41:12 GMT 49.606529 8.931439 31,000 121 469 -64
2021-09-17 07:41:09 GMT 49.610161 8.922309 31,000 121 469 0
2021-09-17 07:41:06 GMT 49.613663 8.913454 31,000 120 469 0
2021-09-17 07:41:02 GMT 49.618195 8.902034 31,000 121 470 0
2021-09-17 07:40:59 GMT 49.621243 8.894323 31,000 118 467 0
2021-09-17 07:40:56 GMT 49.627396 8.878616 31,000 120 470 0
2021-09-17 07:40:54 GMT 49.627396 8.878616 31,000 120 469 0
2021-09-17 07:40:51 GMT 49.630829 8.869753 31,000 120 468 0
2021-09-17 07:40:48 GMT 49.634033 8.861413 31,000 120 469 0
2021-09-17 07:40:45 GMT 49.636688 8.854475 31,000 120 469 0
2021-09-17 07:40:42 GMT 49.640514 8.844440 31,000 119 468 0
2021-09-17 07:40:39 GMT 49.643074 8.837462 31,000 119 468 0
2021-09-17 07:40:36 GMT 49.646519 8.828183 31,000 119 468 0
2021-09-17 07:40:34 GMT 49.652336 8.811852 31,000 118 467 0
2021-09-17 07:40:31 GMT 49.652336 8.811852 31,000 118 467 0
2021-09-17 07:40:28 GMT 49.655502 8.802795 31,000 118 467 0
2021-09-17 07:40:25 GMT 49.657879 8.796040 31,000 118 467 0
2021-09-17 07:40:22 GMT 49.661926 8.784312 31,000 118 467 0
2021-09-17 07:40:19 GMT 49.663555 8.779561 31,000 118 467 0
2021-09-17 07:40:16 GMT 49.667313 8.768752 31,000 118 467 -64
2021-09-17 07:40:14 GMT 49.668961 8.764054 31,000 118 467 0
2021-09-17 07:40:11 GMT 49.672440 8.754080 31,000 118 467 0
2021-09-17 07:40:08 GMT 49.674961 8.746750 31,000 118 467 0
2021-09-17 07:40:05 GMT 49.678116 8.737673 31,000 118 467 0
2021-09-17 07:40:02 GMT 49.684433 8.719458 31,000 118 467 0
2021-09-17 07:39:59 GMT 49.684433 8.719458 31,000 118 467 0
2021-09-17 07:39:56 GMT 49.687160 8.711490 31,000 118 467 0
2021-09-17 07:39:53 GMT 49.694550 8.690113 31,000 118 467 0
2021-09-17 07:39:50 GMT 49.697617 8.681295 31,000 117 466 0
2021-09-17 07:39:47 GMT 49.697617 8.681295 31,000 117 466 0
2021-09-17 07:39:44 GMT 49.700638 8.672477 31,000 117 466 0
2021-09-17 07:39:41 GMT 49.702148 8.668064 31,000 117 466 0
2021-09-17 07:39:38 GMT 49.705307 8.658961 31,000 117 466 0
2021-09-17 07:39:35 GMT 49.708431 8.649878 31,000 117 466 0
2021-09-17 07:39:32 GMT 49.711990 8.639591 31,000 117 466 0
2021-09-17 07:39:29 GMT 49.715137 8.630503 31,000 117 466 0
2021-09-17 07:39:26 GMT 49.718349 8.621150 31,000 117 466 0
2021-09-17 07:39:23 GMT 49.722107 8.610246 31,000 117 466 0
2021-09-17 07:39:20 GMT 49.726318 8.597958 31,000 117 466 0
2021-09-17 07:39:16 GMT 49.729240 8.589379 31,000 117 466 0
2021-09-17 07:39:13 GMT 49.731289 8.583514 31,000 117 466 0
2021-09-17 07:39:10 GMT 49.733898 8.575943 31,000 117 466 0
2021-09-17 07:39:07 GMT 49.736847 8.567384 31,000 117 466 0
2021-09-17 07:39:04 GMT 49.740368 8.557088 31,000 117 466 0
2021-09-17 07:39:01 GMT 49.743073 8.549170 31,000 117 466 0
2021-09-17 07:38:58 GMT 49.746506 8.539196 31,000 117 466 0
2021-09-17 07:38:55 GMT 49.749214 8.531255 31,000 117 466 0
2021-09-17 07:38:52 GMT 49.752960 8.520403 31,000 117 466 0
2021-09-17 07:38:48 GMT 49.756660 8.509579 31,000 117 466 0
2021-09-17 07:38:45 GMT 49.759369 8.501611 31,000 117 466 64
2021-09-17 07:38:42 GMT 49.763317 8.490205 31,000 117 465 64
2021-09-17 07:38:39 GMT 49.766190 8.481662 31,000 104 465 64
2021-09-17 07:38:36 GMT 49.768204 8.475808 31,000 117 465 0
2021-09-17 07:38:33 GMT 49.771744 8.465560 31,000 117 466 0
2021-09-17 07:38:30 GMT 49.774303 8.457914 31,000 117 466 0
2021-09-17 07:38:27 GMT 49.777283 8.449080 31,000 117 465 0
2021-09-17 07:38:24 GMT 49.780746 8.438729 31,000 116 465 0
2021-09-17 07:38:21 GMT 49.783905 8.429260 31,000 116 466 0
2021-09-17 07:38:18 GMT 49.789295 8.411593 31,000 114 465 0
2021-09-17 07:38:15 GMT 49.789295 8.411593 31,000 113 464 0
2021-09-17 07:38:12 GMT 49.791138 8.405192 31,000 111 464 0
2021-09-17 07:38:09 GMT 49.793839 8.394783 31,000 104 461 -64
2021-09-17 07:38:06 GMT 49.796082 8.385459 31,000 107 462 0
2021-09-17 07:38:03 GMT 49.800140 8.365643 31,000 106 461 0
2021-09-17 07:38:00 GMT 49.800140 8.365643 31,000 105 461 64
2021-09-17 07:37:57 GMT 49.801537 8.358072 31,000 104 461 0
2021-09-17 07:37:54 GMT 49.805099 8.336744 31,000 104 461 -64
2021-09-17 07:37:51 GMT 49.805099 8.336744 31,000 104 461 0
2021-09-17 07:37:48 GMT 49.806473 8.328432 31,000 104 463 0
2021-09-17 07:37:45 GMT 49.809906 8.307977 31,000 104 462 -64
2021-09-17 07:37:42 GMT 49.809906 8.307977 31,000 104 464 0
2021-09-17 07:37:39 GMT 49.811218 8.299948 31,000 104 464 0
2021-09-17 07:37:36 GMT 49.813293 8.287450 31,000 104 464 0
2021-09-17 07:37:33 GMT 49.816013 8.271072 31,000 104 464 0
2021-09-17 07:37:30 GMT 49.816013 8.271072 31,000 104 474 -192
2021-09-17 07:37:27 GMT 49.818100 8.258611 31,000 104 466 0
2021-09-17 07:37:24 GMT 49.819412 8.250510 31,000 104 466 0
2021-09-17 07:37:21 GMT 49.820717 8.242790 31,000 104 466 0
2021-09-17 07:37:18 GMT 49.822586 8.231506 31,000 104 466 0
2021-09-17 07:37:15 GMT 49.824280 8.221171 31,000 104 467 0
2021-09-17 07:37:12 GMT 49.825603 8.213097 31,000 104 467 0
2021-09-17 07:37:09 GMT 49.827164 8.203751 31,000 104 468 0
2021-09-17 07:37:06 GMT 49.828815 8.193722 31,000 104 468 0
2021-09-17 07:37:03 GMT 49.830540 8.183330 31,000 104 469 0
2021-09-17 07:37:00 GMT 49.832027 8.174199 31,000 104 470 0
2021-09-17 07:36:57 GMT 49.833710 8.164143 31,025 104 471 -64
2021-09-17 07:36:54 GMT 49.835175 8.155036 31,000 104 471 0
2021-09-17 07:36:51 GMT 49.837429 8.141686 31,000 104 471 -64
2021-09-17 07:36:48 GMT 49.838268 8.136415 31,000 104 472 -64
2021-09-17 07:36:45 GMT 49.840485 8.123016 31,000 104 472 -64
2021-09-17 07:36:42 GMT 49.841759 8.115185 31,000 104 473 0
2021-09-17 07:36:39 GMT 49.844879 8.096201 31,000 104 473 0
2021-09-17 07:36:36 GMT 49.844879 8.096201 31,000 104 473 0
2021-09-17 07:36:33 GMT 49.848274 8.075545 31,000 104 473 0
2021-09-17 07:36:30 GMT 49.849869 8.065989 31,000 104 474 0
2021-09-17 07:36:27 GMT 49.849869 8.065989 31,000 104 474 -64
2021-09-17 07:36:24 GMT 49.851562 8.055508 30,925 104 462 896
2021-09-17 07:36:21 GMT 49.854446 8.037800 31,000 104 474 -192
2021-09-17 07:36:18 GMT 49.854446 8.037800 31,025 104 474 -192
2021-09-17 07:36:15 GMT 49.855865 8.029199 31,000 104 474 -192
2021-09-17 07:36:12 GMT 49.857925 8.016767 31,025 104 475 128
2021-09-17 07:36:09 GMT 49.861130 7.996963 31,000 104 471 0
2021-09-17 07:36:06 GMT 49.861130 7.996963 31,000 104 474 64
2021-09-17 07:36:03 GMT 49.862705 7.987432 30,950 104 463 512
2021-09-17 07:36:01 GMT 49.864105 7.978969 31,000 104 469 -128
2021-09-17 07:35:58 GMT 49.865204 7.972099 31,000 104 469 -128
2021-09-17 07:35:55 GMT 49.867455 7.958036 31,000 104 468 -128
2021-09-17 07:35:52 GMT 49.868526 7.951578 31,000 104 465 128
2021-09-17 07:35:49 GMT 49.869827 7.943477 31,000 104 464 320
2021-09-17 07:35:46 GMT 49.872017 7.930273 30,925 104 462 896
2021-09-17 07:35:43 GMT 49.873306 7.922227 30,975 104 463 704
2021-09-17 07:35:41 GMT 49.874771 7.913264 30,925 104 462 896
2021-09-17 07:35:38 GMT 49.875824 7.906904 30,875 104 460 960
2021-09-17 07:35:35 GMT 49.877380 7.897291 30,775 104 459 960
2021-09-17 07:35:31 GMT 49.880024 7.880983 30,750 104 459 960
2021-09-17 07:35:28 GMT 49.881050 7.874599 30,725 103 459 960
2021-09-17 07:35:25 GMT 49.882584 7.865097 30,700 104 458 960
2021-09-17 07:35:22 GMT 49.884293 7.854574 30,625 104 457 960
2021-09-17 07:35:20 GMT 49.885052 7.849806 30,575 104 457 960
2021-09-17 07:35:17 GMT 49.886494 7.840898 30,550 104 456 960
2021-09-17 07:35:14 GMT 49.888355 7.829540 30,500 104 456 960
2021-09-17 07:35:11 GMT 49.890106 7.818435 30,425 104 454 1024
2021-09-17 07:35:08 GMT 49.891846 7.807738 30,400 103 455 1024
2021-09-17 07:35:04 GMT 49.893265 7.798847 30,325 104 454 1024
2021-09-17 07:35:01 GMT 49.894733 7.789752 29,975 104 452 1088
2021-09-17 07:34:58 GMT 49.896332 7.779983 30,225 104 452 1152
2021-09-17 07:34:55 GMT 49.897842 7.770587 30,150 103 452 1600
2021-09-17 07:34:52 GMT 49.899296 7.761470 29,900 103 452 1600
2021-09-17 07:34:49 GMT 49.900787 7.752042 29,900 103 452 1600
2021-09-17 07:34:46 GMT 49.902138 7.743877 29,975 103 452 1600
2021-09-17 07:34:43 GMT 49.904160 7.731050 29,825 103 452 1600
2021-09-17 07:34:40 GMT 49.905720 7.721310 29,700 103 452 1664
2021-09-17 07:34:37 GMT 49.907089 7.712836 29,700 103 452 1664
2021-09-17 07:34:33 GMT 49.910282 7.693102 29,550 103 452 1664
2021-09-17 07:34:30 GMT 49.910282 7.693102 29,475 103 452 1728
2021-09-17 07:34:27 GMT 49.911713 7.683997 29,400 103 452 1728
2021-09-17 07:34:24 GMT 49.915405 7.661108 29,275 103 452 1728
2021-09-17 07:34:21 GMT 49.915405 7.661108 29,225 103 452 1728
2021-09-17 07:34:18 GMT 49.916473 7.654507 28,875 103 452 1728
2021-09-17 07:34:15 GMT 49.919449 7.635643 29,000 103 452 1728
2021-09-17 07:34:12 GMT 49.919449 7.635643 28,950 103 452 1728
2021-09-17 07:34:09 GMT 49.921410 7.623398 28,900 103 452 1728
2021-09-17 07:34:06 GMT 49.924065 7.606993 28,425 103 453 1792
2021-09-17 07:34:03 GMT 49.924065 7.606993 28,725 103 453 1856
2021-09-17 07:34:00 GMT 49.927460 7.585614 28,600 103 453 1856
2021-09-17 07:33:57 GMT 49.927460 7.585614 28,550 103 453 1856
2021-09-17 07:33:53 GMT 49.928951 7.576187 28,425 103 453 1792
2021-09-17 07:33:50 GMT 49.930527 7.566472 28,325 103 453 1728
2021-09-17 07:33:47 GMT 49.931946 7.557582 28,125 103 453 1728
2021-09-17 07:33:44 GMT 49.933655 7.546568 28,150 103 453 1728
2021-09-17 07:33:41 GMT 49.935516 7.534959 28,050 103 453 1728
2021-09-17 07:33:38 GMT 49.936680 7.527713 28,000 103 453 1792
2021-09-17 07:33:35 GMT 49.938168 7.518212 27,875 103 453 1856
2021-09-17 07:33:32 GMT 49.939590 7.509372 27,775 103 454 1856
2021-09-17 07:33:29 GMT 49.941650 7.496507 27,725 103 454 1856
2021-09-17 07:33:26 GMT 49.942932 7.488267 27,600 103 454 1792
2021-09-17 07:33:23 GMT 49.945633 7.471209 27,550 103 454 1856
2021-09-17 07:33:20 GMT 49.945633 7.471209 27,450 103 454 1792
2021-09-17 07:33:17 GMT 49.947060 7.462092 27,325 103 454 1856
2021-09-17 07:33:14 GMT 49.948547 7.452591 27,275 103 454 1856
2021-09-17 07:33:11 GMT 49.950039 7.443163 27,175 103 454 1856
2021-09-17 07:33:08 GMT 49.951584 7.433335 27,075 103 454 1856
2021-09-17 07:33:05 GMT 49.952820 7.425746 27,075 103 454 1856
2021-09-17 07:33:02 GMT 49.954742 7.413470 26,875 103 455 1920
2021-09-17 07:32:59 GMT 49.956043 7.405231 26,825 103 455 1920
2021-09-17 07:32:56 GMT 49.957348 7.396991 26,700 103 455 1856
2021-09-17 07:32:53 GMT 49.959023 7.386301 26,625 103 455 1920
2021-09-17 07:32:50 GMT 49.960186 7.378656 26,550 103 455 1920
2021-09-17 07:32:47 GMT 49.961910 7.367892 26,450 103 455 1920
2021-09-17 07:32:44 GMT 49.963306 7.359058 26,350 103 455 1920
2021-09-17 07:32:41 GMT 49.965225 7.346746 26,250 103 455 1856
2021-09-17 07:32:38 GMT 49.966984 7.335675 26,175 103 454 1856
2021-09-17 07:32:35 GMT 49.967926 7.329616 26,050 103 455 1984
2021-09-17 07:32:32 GMT 49.969452 7.319790 25,950 103 455 1984
2021-09-17 07:32:29 GMT 49.970993 7.309956 25,750 103 455 1984
2021-09-17 07:32:26 GMT 49.972275 7.301716 25,650 103 455 1920
2021-09-17 07:32:23 GMT 49.974293 7.288761 25,550 103 456 1984
2021-09-17 07:32:20 GMT 49.975410 7.281783 25,550 103 456 1984
2021-09-17 07:32:17 GMT 49.976994 7.271613 25,400 103 456 1984
2021-09-17 07:32:14 GMT 49.980251 7.250605 25,350 103 456 1984
2021-09-17 07:32:10 GMT 49.980251 7.250605 25,275 103 456 1984
2021-09-17 07:32:07 GMT 49.981659 7.241364 25,175 103 456 1984
2021-09-17 07:32:04 GMT 49.983509 7.229598 25,125 103 456 2048
2021-09-17 07:32:01 GMT 49.984581 7.222620 25,050 103 457 2048
2021-09-17 07:31:58 GMT 49.986256 7.211782 24,900 103 457 1920
2021-09-17 07:31:55 GMT 49.987793 7.201899 24,800 103 457 1792
2021-09-17 07:31:51 GMT 49.989441 7.191058 24,700 103 457 1856
2021-09-17 07:31:48 GMT 49.991318 7.178915 23,975 103 457 2176
2021-09-17 07:31:45 GMT 49.992775 7.169693 23,975 103 457 2176
2021-09-17 07:31:41 GMT 49.994888 7.156003 24,325 103 458 2688
2021-09-17 07:31:37 GMT 49.996490 7.145811 24,075 103 460 2432
2021-09-17 07:31:34 GMT 49.997864 7.136777 24,075 103 460 2432
2021-09-17 07:31:31 GMT 49.999649 7.125284 23,975 103 459 256
2021-09-17 07:31:27 GMT 50.001526 7.113069 23,975 103 457 -192
2021-09-17 07:31:24 GMT 50.003109 7.102513 23,975 103 454 -256
2021-09-17 07:31:21 GMT 50.004784 7.091675 24,000 103 453 -128
2021-09-17 07:31:18 GMT 50.006321 7.081579 24,000 103 449 192
2021-09-17 07:31:15 GMT 50.007706 7.072521 23,975 103 447 704
2021-09-17 07:31:12 GMT 50.010464 7.054707 23,925 103 446 1088
2021-09-17 07:31:09 GMT 50.010464 7.054707 23,900 103 444 1344
2021-09-17 07:31:05 GMT 50.012009 7.044477 23,775 103 441 1344
2021-09-17 07:31:02 GMT 50.013306 7.036149 23,725 103 443 1344
2021-09-17 07:30:59 GMT 50.016518 7.015142 23,650 103 441 1344
2021-09-17 07:30:56 GMT 50.016518 7.015142 23,600 103 440 1280
2021-09-17 07:30:53 GMT 50.017632 7.007718 23,500 103 439 1280
2021-09-17 07:30:50 GMT 50.019402 6.996064 23,450 103 439 1344
2021-09-17 07:30:47 GMT 50.022427 6.975799 23,400 103 438 1344
2021-09-17 07:30:44 GMT 50.023407 6.968801 23,325 102 437 1472
2021-09-17 07:30:41 GMT 50.023407 6.968801 23,275 101 437 1472
2021-09-17 07:30:37 GMT 50.024872 6.957743 23,100 99 434 1408
2021-09-17 07:30:34 GMT 50.025921 6.948184 23,125 89 428 1344
2021-09-17 07:30:31 GMT 50.026897 6.934006 22,950 88 426 1344
2021-09-17 07:30:28 GMT 50.027130 6.929701 22,950 90 429 1280
2021-09-17 07:30:25 GMT 50.027344 6.919507 22,925 88 427 1344
2021-09-17 07:30:21 GMT 50.027267 6.908173 22,850 88 425 1344
2021-09-17 07:30:18 GMT 50.027115 6.899992 22,750 87 421 1088
2021-09-17 07:30:15 GMT 50.026806 6.886869 22,625 87 422 1280
2021-09-17 07:30:09 GMT 50.026199 6.860220 22,550 87 421 1088
2021-09-17 07:30:06 GMT 50.026199 6.860220 22,525 87 420 960
2021-09-17 07:30:03 GMT 50.026108 6.855758 22,375 87 419 0
2021-09-17 07:30:00 GMT 50.025871 6.845225 22,400 87 417 1024
2021-09-17 07:29:57 GMT 50.025684 6.836837 22,350 87 411 960
2021-09-17 07:29:54 GMT 50.025421 6.826991 22,275 87 413 1024
2021-09-17 07:29:51 GMT 50.025173 6.814790 22,275 87 413 1024
2021-09-17 07:29:48 GMT 50.024963 6.806825 22,175 87 411 960
2021-09-17 07:29:45 GMT 50.024734 6.797935 22,175 87 410 1024
2021-09-17 07:29:39 GMT 50.024151 6.773071 22,075 87 406 960
2021-09-17 07:29:36 GMT 50.024151 6.773071 22,025 87 404 1024
2021-09-17 07:29:33 GMT 50.023731 6.756295 22,000 87 404 1024
2021-09-17 07:29:30 GMT 50.023731 6.756295 21,950 87 401 960
2021-09-17 07:29:26 GMT 50.023453 6.745309 21,850 87 393 960
2021-09-17 07:29:23 GMT 50.023174 6.733357 21,825 87 393 1024
2021-09-17 07:29:20 GMT 50.022987 6.724821 21,750 87 393 1024
2021-09-17 07:29:17 GMT 50.022858 6.718862 21,700 87 392 1024
2021-09-17 07:29:14 GMT 50.022629 6.710406 21,325 87 379 2176
2021-09-17 07:29:11 GMT 50.022427 6.702328 21,300 87 388 1024
2021-09-17 07:29:08 GMT 50.022034 6.686482 21,550 87 386 1088
2021-09-17 07:29:05 GMT 50.022034 6.686482 21,325 87 382 1344
2021-09-17 07:29:02 GMT 50.021576 6.668340 21,475 87 382 1344
2021-09-17 07:28:59 GMT 50.021576 6.668340 21,400 87 380 2176
2021-09-17 07:28:55 GMT 50.021358 6.658754 21,200 87 379 2176
2021-09-17 07:28:52 GMT 50.020844 6.639157 21,125 87 379 2176
2021-09-17 07:28:49 GMT 50.020844 6.639157 20,975 87 378 2048
2021-09-17 07:28:46 GMT 50.020706 6.633218 20,800 87 377 2048
2021-09-17 07:28:43 GMT 50.020523 6.626418 20,800 87 377 1984
2021-09-17 07:28:40 GMT 50.020248 6.615649 20,550 87 376 1984
2021-09-17 07:28:37 GMT 50.020054 6.606717 20,600 87 375 1920
2021-09-17 07:28:34 GMT 50.019821 6.598626 20,550 87 374 1920
2021-09-17 07:28:31 GMT 50.019402 6.581998 20,500 87 372 1984
2021-09-17 07:28:27 GMT 50.019402 6.581998 20,350 87 371 2112
2021-09-17 07:28:24 GMT 50.019104 6.571631 20,250 87 372 2048
2021-09-17 07:28:21 GMT 50.019012 6.566283 20,050 87 370 2496
2021-09-17 07:28:18 GMT 50.018749 6.555943 20,000 87 370 2560
2021-09-17 07:28:15 GMT 50.018612 6.551118 19,850 87 370 2560
2021-09-17 07:28:12 GMT 50.018425 6.544214 19,700 87 370 2496
2021-09-17 07:28:09 GMT 50.018192 6.534638 19,575 87 370 2560
2021-09-17 07:28:05 GMT 50.017914 6.523503 19,400 87 370 2560
2021-09-17 07:28:02 GMT 50.017685 6.514748 19,300 87 370 2560
2021-09-17 07:27:59 GMT 50.017502 6.507882 19,300 87 370 2560
2021-09-17 07:27:56 GMT 50.017307 6.500195 19,050 86 369 2816
2021-09-17 07:27:53 GMT 50.017075 6.491658 18,850 87 369 2688
2021-09-17 07:27:50 GMT 50.016888 6.484829 18,275 85 369 2688
2021-09-17 07:27:47 GMT 50.016563 6.475253 18,500 86 369 2752
2021-09-17 07:27:44 GMT 50.016312 6.468128 18,450 86 369 2816
2021-09-17 07:27:41 GMT 50.015678 6.453057 18,250 79 367 2432
2021-09-17 07:27:34 GMT 50.014893 6.441747 17,675 70 363 3520
2021-09-17 07:27:31 GMT 50.014141 6.434722 18,100 78 366 2368
2021-09-17 07:27:28 GMT 50.012604 6.423958 17,950 70 363 3520
2021-09-17 07:27:24 GMT 50.011459 6.417678 17,700 70 363 3520
2021-09-17 07:27:21 GMT 50.010090 6.410968 17,675 50 372 4544
2021-09-17 07:27:18 GMT 50.007706 6.400982 17,450 48 374 4800
2021-09-17 07:27:15 GMT 50.005737 6.393826 17,225 64 364 4352
2021-09-17 07:27:12 GMT 50.003723 6.387177 16,775 55 370 4352
2021-09-17 07:27:09 GMT 50.001480 6.380744 15,800 59 368 4352
2021-09-17 07:27:06 GMT 49.998550 6.373010 16,500 55 370 4352
2021-09-17 07:27:03 GMT 49.996220 6.367468 16,400 52 371 4416
2021-09-17 07:27:00 GMT 49.993378 6.361455 16,025 51 371 4416
2021-09-17 07:26:56 GMT 49.988525 6.352121 15,725 40 381 5440
2021-09-17 07:26:53 GMT 49.983742 6.343936 15,550 45 377 5312
2021-09-17 07:26:50 GMT 49.982021 6.341264 15,425 44 378 5312
2021-09-17 07:26:46 GMT 49.975937 6.332679 15,025 36 387 4992
2021-09-17 07:26:43 GMT 49.972321 6.328197 14,775 32 390 4224
2021-09-17 07:26:40 GMT 49.967823 6.323226 14,550 31 390 3840
2021-09-17 07:26:37 GMT 49.963074 6.318657 14,400 24 390 2048
2021-09-17 07:26:34 GMT 49.953903 6.311274 14,250 24 380 1536
2021-09-17 07:26:31 GMT 49.953903 6.311274 14,100 24 390 1792
2021-09-17 07:26:25 GMT 49.943382 6.303851 13,975 24 386 768
2021-09-17 07:26:22 GMT 49.937515 6.299694 13,925 24 386 768
2021-09-17 07:26:19 GMT 49.929417 6.293978 13,875 24 384 1280
2021-09-17 07:26:16 GMT 49.929417 6.293978 13,875 24 384 1280
2021-09-17 07:26:13 GMT 49.924759 6.290757 13,775 24 380 1536
2021-09-17 07:26:10 GMT 49.919907 6.287432 13,575 22 374 1536
2021-09-17 07:26:07 GMT 49.914333 6.283660 13,575 22 358 1984
2021-09-17 07:26:04 GMT 49.909378 6.280421 13,500 22 373 1600
2021-09-17 07:26:01 GMT 49.905071 6.277573 13,475 22 371 1536
2021-09-17 07:25:56 GMT 49.897293 6.272615 11,025 22 365 1408
2021-09-17 07:25:53 GMT 49.892578 6.269579 13,275 22 365 1408
2021-09-17 07:25:50 GMT 49.886353 6.265604 13,175 22 364 1408
2021-09-17 07:25:45 GMT 49.878616 6.260545 13,050 22 359 1728
2021-09-17 07:25:42 GMT 49.875370 6.258495 13,000 22 359 1856
2021-09-17 07:25:39 GMT 49.871086 6.255749 12,900 22 357 1792
2021-09-17 07:25:33 GMT 49.861542 6.249631 12,750 22 352 1408
2021-09-17 07:25:30 GMT 49.857605 6.247101 12,700 22 350 1152
2021-09-17 07:25:26 GMT 49.851814 6.243352 12,625 22 342 1728
2021-09-17 07:25:23 GMT 49.846619 6.240018 12,550 22 342 1728
2021-09-17 07:25:18 GMT 49.839890 6.235681 12,375 22 340 2304
2021-09-17 07:25:12 GMT 49.830215 6.229471 12,125 22 336 2240
2021-09-17 07:25:09 GMT 49.827209 6.227513 12,050 22 335 2240
2021-09-17 07:25:03 GMT 49.817505 6.221297 11,800 22 332 2240
2021-09-17 07:24:59 GMT 49.812378 6.218045 11,675 22 330 2176
2021-09-17 07:24:52 GMT 49.800747 6.210616 11,400 22 325 2048
2021-09-17 07:24:49 GMT 49.798233 6.208983 11,325 22 324 2048
2021-09-17 07:24:46 GMT 49.793018 6.205642 11,225 22 320 1984
2021-09-17 07:24:42 GMT 49.788876 6.202970 11,100 22 319 1920
2021-09-17 07:24:39 GMT 49.783985 6.199852 11,000 22 316 1920
2021-09-17 07:24:32 GMT 49.774979 6.194121 10,800 22 311 1856
2021-09-17 07:24:28 GMT 49.769943 6.190868 10,675 22 308 1728
2021-09-17 07:24:23 GMT 49.762344 6.186026 10,500 22 302 1792
2021-09-17 07:24:20 GMT 49.758499 6.183568 10,425 22 298 1600
2021-09-17 07:24:17 GMT 49.756439 6.182267 10,400 22 297 1536
2021-09-17 07:24:12 GMT 49.748749 6.177360 10,250 22 290 1152
2021-09-17 07:24:08 GMT 49.743668 6.174172 10,175 22 284 1280
2021-09-17 07:24:04 GMT 49.736595 6.169566 10,000 22 278 2752
2021-09-17 07:24:01 GMT 49.736595 6.169566 9,975 22 278 2752
2021-09-17 07:23:57 GMT 49.731262 6.166221 9,725 22 273 2752
2021-09-17 07:23:53 GMT 49.726776 6.163330 9,525 22 273 2752
2021-09-17 07:23:50 GMT 49.723251 6.161089 9,475 22 273 2688
2021-09-17 07:23:46 GMT 49.719086 6.158415 9,325 22 270 2688
2021-09-17 07:23:41 GMT 49.712715 6.154348 9,075 22 268 2560
2021-09-17 07:23:37 GMT 49.706863 6.150609 8,875 22 265 2560
2021-09-17 07:23:32 GMT 49.701775 6.147296 8,700 22 261 2496
2021-09-17 07:23:28 GMT 49.697960 6.144921 8,525 22 255 2304
2021-09-17 07:23:25 GMT 49.695190 6.143092 8,450 22 260 2432
2021-09-17 07:23:22 GMT 49.691895 6.140996 8,325 22 258 2304
2021-09-17 07:23:19 GMT 49.686741 6.137646 8,100 22 251 2304
2021-09-17 07:23:14 GMT 49.681385 6.134231 7,975 22 250 2240
2021-09-17 07:23:10 GMT 49.677753 6.131856 7,850 22 246 1984
2021-09-17 07:23:06 GMT 49.673492 6.129142 7,725 22 241 1728
2021-09-17 07:23:02 GMT 49.669785 6.126757 7,675 22 240 1728
2021-09-17 07:22:58 GMT 49.665279 6.123764 7,450 23 232 2368
2021-09-17 07:22:53 GMT 49.660530 6.120647 7,300 22 229 1984
2021-09-17 07:22:50 GMT 49.655182 6.117216 7,175 23 227 1984
2021-09-17 07:22:47 GMT 49.655182 6.117216 7,100 22 222 2176
2021-09-17 07:22:44 GMT 49.652431 6.115450 7,000 22 219 2752
2021-09-17 07:22:40 GMT 49.648590 6.112952 6,825 21 218 2624
2021-09-17 07:22:37 GMT 49.646423 6.111665 6,725 21 215 1472
2021-09-17 07:22:33 GMT 49.642044 6.108977 6,550 21 210 1024
2021-09-17 07:22:30 GMT 49.639160 6.107170 6,525 21 207 1024
2021-09-17 07:22:27 GMT 49.637115 6.105875 6,475 21 203 1280
2021-09-17 07:22:24 GMT 49.634033 6.103989 6,400 20 199 1920
2021-09-17 07:22:21 GMT 49.631104 6.102327 6,175 19 194 1792
2021-09-17 07:22:18 GMT 49.628643 6.101049 6,200 19 194 1792
2021-09-17 07:22:13 GMT 49.625153 6.099147 6,050 21 191 2112
2021-09-17 07:22:10 GMT 49.622589 6.097709 5,875 355 186 2304
2021-09-17 07:22:07 GMT 49.620075 6.096447 5,850 12 188 1920
2021-09-17 07:22:03 GMT 49.616592 6.095461 5,650 5 186 2112
2021-09-17 07:22:00 GMT 49.613663 6.095244 5,575 355 186 2304
2021-09-17 07:21:57 GMT 49.611282 6.095533 5,425 350 186 2240
2021-09-17 07:21:54 GMT 49.607895 6.096689 5,325 336 186 2432
2021-09-17 07:21:50 GMT 49.605240 6.098496 5,200 328 186 2432
2021-09-17 07:21:47 GMT 49.603043 6.100592 5,075 320 186 2624
2021-09-17 07:21:43 GMT 49.600433 6.104062 4,850 309 188 2240
2021-09-17 07:21:39 GMT 49.598755 6.107211 4,800 300 188 2176
2021-09-17 07:21:36 GMT 49.597126 6.111368 4,475 282 187 2304
2021-09-17 07:21:32 GMT 49.595718 6.116927 4,500 284 187 2368
2021-09-17 07:21:27 GMT 49.595123 6.123216 4,200 268 187 2176
2021-09-17 07:21:23 GMT 49.595398 6.128998 4,175 259 186 1664
2021-09-17 07:21:19 GMT 49.596008 6.132672 4,100 244 181 2048
2021-09-17 07:21:16 GMT 49.597172 6.136978 3,975 240 179 2304
2021-09-17 07:21:13 GMT 49.598465 6.140418 3,825 239 178 2368
2021-09-17 07:21:10 GMT 49.600151 6.144624 3,225 238 177 2240
2021-09-17 07:21:06 GMT 49.601086 6.146999 3,200 238 177 2240
2021-09-17 07:21:02 GMT 49.603226 6.152199 3,375 238 173 2368
2021-09-17 07:20:59 GMT 49.604507 6.155379 3,325 238 173 2432
2021-09-17 07:20:55 GMT 49.605881 6.158704 3,200 239 171 2560
2021-09-17 07:20:50 GMT 49.608307 6.164776 2,950 240 172 2624
2021-09-17 07:20:46 GMT 49.609554 6.168007 2,825 240 171 2560
2021-09-17 07:20:43 GMT 49.611137 6.172238 2,650 240 171 2816
2021-09-17 07:20:40 GMT 49.612198 6.175111 2,525 240 171 2816
2021-09-17 07:20:36 GMT 49.613708 6.179087 2,350 239 171 2752
2021-09-17 07:20:30 GMT 49.616364 6.185736 2,050 238 172 2752
2021-09-17 07:20:25 GMT 49.618122 6.189979 1,875 239 172 2816
2021-09-17 07:20:19 GMT 49.620621 6.196361 1,600 239 171 2432
2021-09-17 07:20:15 GMT 49.622311 6.200669 1,450 240 170 2624
2021-09-17 07:20:09 GMT 49.624741 6.207059 1,200 240 172 1728
2021-09-17 07:20:06 GMT 49.626114 6.210600 1,125 241 169 448
2021-09-17 07:19:59 GMT 49.628677 6.217539 1,125 240 147 64
2021-09-17 07:19:45 GMT 49.632797 6.228599 0 239 94
2021-09-17 07:19:38 GMT 49.634369 6.232848 0 241 66
2021-09-17 07:19:35 GMT 49.634369 6.232848 0 241 51
2021-09-17 07:19:30 GMT 49.634857 6.234163 0 239 21
2021-09-17 07:19:26 GMT 49.635021 6.234574 0 239 8
2021-09-17 07:19:18 GMT 49.635109 6.234777 0 239 2
2021-09-17 07:19:13 GMT 49.635143 6.234886 0 239 9
2021-09-17 07:19:07 GMT 49.635288 6.235205 0 199 9
2021-09-17 07:18:58 GMT 49.635708 6.235149 0 149 13
2021-09-17 07:18:49 GMT 49.636185 6.234741 0 149 13
2021-09-17 07:18:37 GMT 49.636684 6.234036 0 59 12
2021-09-17 07:18:30 GMT 49.636642 6.233567 0 61 12
2021-09-17 07:18:23 GMT 49.636406 6.232960 0 61 23
2021-09-17 07:18:15 GMT 49.636139 6.232266 0 59 17
2021-09-17 07:18:10 GMT 49.635967 6.231796 0 59 18
2021-09-17 07:17:56 GMT 49.635300 6.230009 0 61 23
2021-09-17 07:17:53 GMT 49.635189 6.229682 0 59 23
2021-09-17 07:17:44 GMT 49.634720 6.228394 0 59 23
2021-09-17 07:17:30 GMT 49.633999 6.226483 0 59 21
2021-09-17 07:17:25 GMT 49.633724 6.225743 0 59 20
2021-09-17 07:17:14 GMT 49.633297 6.224516 0 61 18
2021-09-17 07:17:08 GMT 49.633076 6.223848 0 64 17
2021-09-17 07:16:56 GMT 49.632706 6.222653 0 64 15
2021-09-17 07:16:52 GMT 49.632603 6.222291 0 64 14
2021-09-17 07:16:47 GMT 49.632355 6.221565 0 64 19
2021-09-17 07:16:29 GMT 49.631802 6.219725 0 64 22
2021-09-17 07:16:27 GMT 49.631725 6.219449 0 64 22
2021-09-17 07:16:13 GMT 49.631161 6.217683 0 61 13
2021-09-17 07:16:06 GMT 49.630901 6.216814 0 64 17
2021-09-17 07:15:55 GMT 49.630562 6.215738 0 61 14
2021-09-17 07:15:52 GMT 49.630493 6.215497 0 61 13
2021-09-17 07:15:47 GMT 49.630360 6.215136 0 84 10
2021-09-17 07:15:41 GMT 49.630249 6.214699 0 84 10
2021-09-17 07:15:36 GMT 49.630249 6.214365 0 118 10
2021-09-17 07:15:31 GMT 49.630360 6.214088 0 143 10
2021-09-17 07:15:25 GMT 49.630562 6.213882 0 151 12
2021-09-17 07:15:18 GMT 49.630886 6.213582 0 151 10
2021-09-17 07:15:15 GMT 49.630970 6.213511 0 151 9
2021-09-17 07:15:09 GMT 49.631195 6.213311 0 149 8
2021-09-17 07:15:05 GMT 49.631317 6.213214 0 149 7
2021-09-17 07:15:02 GMT 49.631390 6.213140 0 149 7
2021-09-17 07:14:19 GMT 49.631527 6.213022 0 149 0
2021-09-17 07:13:53 GMT 49.631531 6.213010 0 149 2
2021-09-17 07:13:34 GMT 49.631527 6.213003 0 149 0
2021-09-17 07:13:15 GMT 49.631516 6.213010 0 149 0
2021-09-17 07:13:05 GMT 49.631527 6.213022 0 149 0
2021-09-17 07:12:59 GMT 49.631516 6.213022 0 149 2

Making use of Plane Finder data

You are free to use the raw flight data, aircraft information and images provided in this report for your own purposes provided the data is correctly attributed to Plane Finder. We ask that you please credit Plane Finder and link to planefinder.net in close proximity to the content.

Optionally one of the following logos (no smaller then 150x24px) can be used and must link to planefinder.net

Embedding the Plane Finder map

You are welcome to embed the Plane Finder playback map on your website to offer visitors a more interactive experience. We suggest using the following HTML code:

<iframe src="//planefinder.net/data/report/LH2317-D-ACNH-7700-squawk-2021-09-17/map" width="800" height="600" seamless="seamless"></iframe>

Where our data comes from

Plane Finder has a global network of data feeds and antenna radars that receive data broadcast directly from aircraft. The primary technologies used are ADS-B and MLAT. We also show feeds from the FAA and a FLARM glider feed.

Click here to find out more about the Plane Finder network.

How we collect our data